createdAt,value
2019-05-30T00:00:55.843Z,51.16
2019-05-30T00:03:27.884Z,47.55
2019-05-30T00:06:00.528Z,49.36
2019-05-30T00:08:32.648Z,50.92
2019-05-30T00:11:04.867Z,52.35
2019-05-30T00:13:36.889Z,53.32
2019-05-30T00:16:09.461Z,54.52
2019-05-30T00:18:41.579Z,55.21
2019-05-30T00:21:13.610Z,56.20
2019-05-30T00:23:45.514Z,57.19
2019-05-30T00:26:17.535Z,57.93
2019-05-30T00:28:49.588Z,58.94
2019-05-30T00:31:21.601Z,59.60
2019-05-30T00:33:53.643Z,60.67
2019-05-30T00:36:25.986Z,61.23
2019-05-30T00:38:57.972Z,61.99
2019-05-30T00:41:29.924Z,61.79
2019-05-30T00:44:02.158Z,62.84
2019-05-30T00:46:34.360Z,64.83
2019-05-30T00:49:06.687Z,51.64
2019-05-30T00:51:38.681Z,46.91
2019-05-30T00:54:10.661Z,48.29
2019-05-30T00:56:42.457Z,50.59
2019-05-30T00:59:14.355Z,52.41
2019-05-30T01:01:46.135Z,53.54
2019-05-30T01:04:18.365Z,54.63
2019-05-30T01:06:50.154Z,55.27
2019-05-30T01:09:22.061Z,56.76
2019-05-30T01:11:54.051Z,57.49
2019-05-30T01:14:25.961Z,57.99
2019-05-30T01:16:59.047Z,59.22
2019-05-30T01:19:31.050Z,59.99
2019-05-30T01:22:05.400Z,60.40
2019-05-30T01:24:37.434Z,61.55
2019-05-30T01:27:09.370Z,61.95
2019-05-30T01:29:41.349Z,62.57
2019-05-30T01:32:29.098Z,63.36
2019-05-30T01:35:02.074Z,49.89
2019-05-30T01:37:37.296Z,46.16
2019-05-30T01:40:10.614Z,48.12
2019-05-30T01:42:42.554Z,50.70
2019-05-30T01:45:14.949Z,51.68
2019-05-30T01:47:46.730Z,53.59
2019-05-30T01:50:18.808Z,54.85
2019-05-30T01:52:50.769Z,55.54
2019-05-30T01:55:22.824Z,57.29
2019-05-30T01:57:54.834Z,58.14
2019-05-30T02:00:38.957Z,59.06
2019-05-30T02:03:11.057Z,59.62
2019-05-30T02:05:43.039Z,60.36
2019-05-30T02:08:14.980Z,61.14
2019-05-30T02:10:47.036Z,61.93
2019-05-30T02:13:19.003Z,63.06
2019-05-30T02:15:51.095Z,51.55
2019-05-30T02:18:23.065Z,46.46
2019-05-30T02:20:54.969Z,48.50
2019-05-30T02:23:27.076Z,50.67
2019-05-30T02:26:00.104Z,52.16
2019-05-30T02:28:32.251Z,53.73
2019-05-30T02:31:05.338Z,54.67
2019-05-30T02:33:37.737Z,55.87
2019-05-30T02:36:12.577Z,57.34
2019-05-30T02:38:44.874Z,58.19
2019-05-30T02:41:17.107Z,59.03
2019-05-30T02:43:49.211Z,60.15
2019-05-30T02:46:21.100Z,61.01
2019-05-30T02:48:58.992Z,62.04
2019-05-30T02:51:26.578Z,64.57
2019-05-30T02:53:58.530Z,51.56
2019-05-30T02:56:30.769Z,46.71
2019-05-30T02:59:03.870Z,49.02
2019-05-30T03:01:36.470Z,50.69
2019-05-30T03:04:10.237Z,52.29
2019-05-30T03:06:42.428Z,54.30
2019-05-30T03:09:14.410Z,55.33
2019-05-30T03:11:46.890Z,56.31
2019-05-30T03:14:19.949Z,57.50
2019-05-30T03:16:52.268Z,58.44
2019-05-30T03:19:24.231Z,59.49
2019-05-30T03:21:56.270Z,60.65
2019-05-30T03:24:28.195Z,61.58
2019-05-30T03:27:00.226Z,62.17
2019-05-30T03:29:32.213Z,63.95
2019-05-30T03:32:38.987Z,51.66
2019-05-30T03:34:37.848Z,46.97
2019-05-30T03:37:21.456Z,48.95
2019-05-30T03:39:43.483Z,51.54
2019-05-30T03:42:16.107Z,52.80
2019-05-30T03:44:48.216Z,54.04
2019-05-30T03:47:22.086Z,55.41
2019-05-30T03:49:56.232Z,56.71
2019-05-30T03:52:29.076Z,58.18
2019-05-30T03:55:01.282Z,58.56
2019-05-30T03:57:43.164Z,59.53
2019-05-30T04:00:37.367Z,59.81
2019-05-30T04:03:31.858Z,60.57
2019-05-30T04:06:10.143Z,62.25
2019-05-30T04:08:43.849Z,64.03
2019-05-30T04:11:29.633Z,50.77
2019-05-30T04:14:06.805Z,47.26
2019-05-30T04:16:38.596Z,49.83
2019-05-30T04:19:12.356Z,51.70
2019-05-30T04:21:43.996Z,53.53
2019-05-30T04:24:16.498Z,54.64
2019-05-30T04:26:48.507Z,55.84
2019-05-30T04:29:20.556Z,56.87
2019-05-30T04:31:52.426Z,58.20
2019-05-30T04:34:24.258Z,58.99
2019-05-30T04:36:56.132Z,59.39
2019-05-30T04:39:28.692Z,59.78
2019-05-30T04:42:00.576Z,60.94
2019-05-30T04:44:32.494Z,61.83
2019-05-30T04:47:23.024Z,62.76
2019-05-30T04:49:56.012Z,60.46
2019-05-30T04:52:27.978Z,51.10
2019-05-30T04:54:59.891Z,51.94
2019-05-30T04:57:31.865Z,53.51
2019-05-30T05:00:05.504Z,54.65
2019-05-30T05:02:37.872Z,55.59
2019-05-30T05:05:11.360Z,56.27
2019-05-30T05:07:43.390Z,57.10
2019-05-30T05:10:20.425Z,57.45
2019-05-30T05:12:52.845Z,58.14
2019-05-30T05:15:24.855Z,58.96
2019-05-30T05:17:56.789Z,59.83
2019-05-30T05:20:28.841Z,59.84
2019-05-30T05:23:01.048Z,60.60
2019-05-30T05:25:33.086Z,61.05
2019-05-30T05:28:05.071Z,61.43
2019-05-30T05:30:37.124Z,61.96
2019-05-30T05:33:09.006Z,62.29
2019-05-30T05:35:40.963Z,62.32
2019-05-30T05:38:12.949Z,49.97
2019-05-30T05:40:45.082Z,46.03
2019-05-30T05:43:18.593Z,47.98
2019-05-30T05:45:51.777Z,49.79
2019-05-30T05:48:24.724Z,51.51
2019-05-30T05:50:56.861Z,52.20
2019-05-30T05:53:29.087Z,53.70
2019-05-30T05:56:01.340Z,54.25
2019-05-30T05:58:33.396Z,55.09
2019-05-30T06:01:07.515Z,55.66
2019-05-30T06:03:39.955Z,56.66
2019-05-30T06:06:11.940Z,56.45
2019-05-30T06:08:44.791Z,57.06
2019-05-30T06:11:16.735Z,57.64
2019-05-30T06:13:48.976Z,57.76
2019-05-30T06:16:21.998Z,58.50
2019-05-30T06:18:54.011Z,58.83
2019-05-30T06:21:27.483Z,59.93
2019-05-30T06:23:59.462Z,58.89
2019-05-30T06:26:31.515Z,59.38
2019-05-30T06:29:03.761Z,58.45
2019-05-30T06:31:35.904Z,58.21
2019-05-30T06:34:07.907Z,59.40
2019-05-30T06:36:41.185Z,58.51
2019-05-30T06:39:13.133Z,58.17
2019-05-30T06:41:45.103Z,58.39
2019-05-30T06:44:16.882Z,54.45
2019-05-30T06:46:48.650Z,57.85
2019-05-30T06:49:20.678Z,56.10
2019-05-30T06:51:52.731Z,58.25
2019-05-30T06:54:25.906Z,56.07
2019-05-30T06:56:58.718Z,56.16
2019-05-30T06:59:31.727Z,56.17
2019-05-30T07:02:03.884Z,55.57
2019-05-30T07:04:50.870Z,57.72
2019-05-30T07:07:09.547Z,58.60
2019-05-30T07:09:41.576Z,58.66
2019-05-30T07:12:13.496Z,57.90
2019-05-30T07:14:45.497Z,55.39
2019-05-30T07:17:17.711Z,54.43
2019-05-30T07:19:49.721Z,54.70
2019-05-30T07:22:21.710Z,55.16
2019-05-30T07:24:53.599Z,53.79
2019-05-30T07:27:26.096Z,54.52
2019-05-30T07:29:58.175Z,51.75
2019-05-30T07:32:32.160Z,47.97
2019-05-30T07:35:07.688Z,52.05
2019-05-30T07:37:39.905Z,50.14
2019-05-30T07:40:12.603Z,52.93
2019-05-30T07:42:44.581Z,52.84
2019-05-30T07:45:17.505Z,51.97
2019-05-30T07:47:49.577Z,49.88
2019-05-30T07:50:21.951Z,47.54
2019-05-30T07:52:53.850Z,45.24
2019-05-30T07:55:26.850Z,46.31
2019-05-30T07:57:59.038Z,42.20
2019-05-30T08:00:33.486Z,46.14
2019-05-30T08:03:04.757Z,47.35
2019-05-30T08:05:36.717Z,46.30
2019-05-30T08:08:08.699Z,45.88
2019-05-30T08:10:40.594Z,43.65
2019-05-30T08:13:12.578Z,44.14
2019-05-30T08:15:44.467Z,44.71
2019-05-30T08:18:16.307Z,45.74
2019-05-30T08:20:48.239Z,45.78
2019-05-30T08:23:20.171Z,44.37
2019-05-30T08:25:52.185Z,44.81
2019-05-30T08:28:24.082Z,43.89
2019-05-30T08:30:56.972Z,44.39
2019-05-30T08:33:29.548Z,45.06
2019-05-30T08:36:05.481Z,42.58
2019-05-30T08:38:37.340Z,43.04
2019-05-30T08:41:09.497Z,42.43
2019-05-30T08:43:41.478Z,43.83
2019-05-30T08:46:15.808Z,42.93
2019-05-30T08:48:48.148Z,42.18
2019-05-30T08:51:20.024Z,44.09
2019-05-30T08:53:51.935Z,43.17
2019-05-30T08:56:23.737Z,41.23
2019-05-30T08:58:55.651Z,43.48
2019-05-30T09:01:27.632Z,43.71
2019-05-30T09:03:59.544Z,43.33
2019-05-30T09:06:32.503Z,41.95
2019-05-30T09:09:06.377Z,42.60
2019-05-30T09:11:39.290Z,43.18
2019-05-30T09:14:13.102Z,44.40
2019-05-30T09:16:46.499Z,43.17
2019-05-30T09:19:18.847Z,42.75
2019-05-30T09:21:51.985Z,41.81
2019-05-30T09:24:23.982Z,43.08
2019-05-30T09:26:57.084Z,42.63
2019-05-30T09:29:29.080Z,44.18
2019-05-30T09:32:01.014Z,44.21
2019-05-30T09:34:33.067Z,45.59
2019-05-30T09:37:04.998Z,45.27
2019-05-30T09:39:36.917Z,42.57
2019-05-30T09:42:08.845Z,43.67
2019-05-30T09:44:42.189Z,43.55
2019-05-30T09:47:14.219Z,45.46
2019-05-30T09:49:46.569Z,44.08
2019-05-30T09:52:18.595Z,44.38
2019-05-30T09:54:50.587Z,43.37
2019-05-30T09:57:22.451Z,42.55
2019-05-30T09:59:54.364Z,42.72
2019-05-30T10:02:26.539Z,41.82
2019-05-30T10:04:58.504Z,41.72
2019-05-30T10:07:30.552Z,43.47
2019-05-30T10:10:03.975Z,43.13
2019-05-30T10:12:35.983Z,44.11
2019-05-30T10:15:12.026Z,41.99
2019-05-30T10:17:44.669Z,40.71
2019-05-30T10:20:18.794Z,43.97
2019-05-30T10:22:52.432Z,41.40
2019-05-30T10:25:24.855Z,40.78
2019-05-30T10:27:57.787Z,40.92
2019-05-30T10:30:30.553Z,43.03
2019-05-30T10:33:02.378Z,41.29
2019-05-30T10:35:34.420Z,40.30
2019-05-30T10:38:06.708Z,40.68
2019-05-30T10:40:38.658Z,42.76
2019-05-30T10:43:18.908Z,42.26
2019-05-30T10:45:57.529Z,39.50
2019-05-30T10:48:30.357Z,42.09
2019-05-30T10:51:02.744Z,42.56
2019-05-30T10:53:37.402Z,40.98
2019-05-30T10:56:08.538Z,40.94
2019-05-30T10:58:40.612Z,42.08
2019-05-30T11:01:12.581Z,41.55
2019-05-30T11:03:44.592Z,44.09
2019-05-30T11:06:21.118Z,40.22
2019-05-30T11:08:54.879Z,40.74
2019-05-30T11:11:26.835Z,40.99
2019-05-30T11:13:58.785Z,41.41
2019-05-30T11:16:30.790Z,41.06
2019-05-30T11:19:07.309Z,40.75
2019-05-30T11:21:36.370Z,42.31
2019-05-30T11:24:08.412Z,40.84
2019-05-30T11:26:40.393Z,40.94
2019-05-30T11:29:12.360Z,41.79
2019-05-30T11:31:44.350Z,40.84
2019-05-30T11:34:16.283Z,39.94
2019-05-30T11:36:48.970Z,41.44
2019-05-30T11:39:21.025Z,41.76
2019-05-30T11:41:53.283Z,42.26
2019-05-30T11:44:25.316Z,41.89
2019-05-30T11:46:57.768Z,39.67
2019-05-30T11:49:29.769Z,40.24
2019-05-30T11:52:01.610Z,39.69
2019-05-30T11:54:34.346Z,39.97
2019-05-30T11:57:07.385Z,40.52
2019-05-30T11:59:39.268Z,39.90
2019-05-30T12:02:11.284Z,40.68
2019-05-30T12:04:43.407Z,40.32
2019-05-30T12:07:15.501Z,38.64
2019-05-30T12:09:48.470Z,39.84
2019-05-30T12:12:20.640Z,38.07
2019-05-30T12:14:53.314Z,39.51
2019-05-30T12:17:25.453Z,39.00
2019-05-30T12:19:59.594Z,40.07
2019-05-30T12:22:31.584Z,41.86
2019-05-30T12:25:07.330Z,41.45
2019-05-30T12:27:39.685Z,40.93
2019-05-30T12:30:12.219Z,40.36
2019-05-30T12:32:45.330Z,39.23
2019-05-30T12:35:21.307Z,40.69
2019-05-30T12:37:58.500Z,40.20
2019-05-30T12:40:27.535Z,41.91
2019-05-30T12:43:01.040Z,39.22
2019-05-30T12:45:33.264Z,40.35
2019-05-30T12:48:05.242Z,40.13
2019-05-30T12:50:37.115Z,39.53
2019-05-30T12:53:09.171Z,38.34
2019-05-30T12:55:41.061Z,37.94
2019-05-30T12:58:13.178Z,39.63
2019-05-30T13:00:45.504Z,37.29
2019-05-30T13:03:17.489Z,37.14
2019-05-30T13:05:49.431Z,37.05
2019-05-30T13:08:22.203Z,35.96
2019-05-30T13:10:55.523Z,37.26
2019-05-30T13:13:27.682Z,36.07
2019-05-30T13:16:01.064Z,37.12
2019-05-30T13:18:33.425Z,36.22
2019-05-30T13:21:06.328Z,36.03
2019-05-30T13:23:38.924Z,36.02
2019-05-30T13:26:10.850Z,34.66
2019-05-30T13:28:42.979Z,35.03
2019-05-30T13:31:15.869Z,36.45
2019-05-30T13:33:47.852Z,35.67
2019-05-30T13:36:19.661Z,34.48
2019-05-30T13:38:51.504Z,34.54
2019-05-30T13:41:23.531Z,34.77
2019-05-30T13:43:55.434Z,34.49
2019-05-30T13:46:27.340Z,34.18
2019-05-30T13:49:00.795Z,35.52
2019-05-30T13:51:32.855Z,35.59
2019-05-30T13:54:05.282Z,34.66
2019-05-30T13:56:37.273Z,34.65
2019-05-30T13:59:10.111Z,36.50
2019-05-30T14:01:42.197Z,34.18
2019-05-30T14:04:14.278Z,34.59
2019-05-30T14:06:46.226Z,34.46
2019-05-30T14:09:19.047Z,34.44
2019-05-30T14:11:50.982Z,31.84
2019-05-30T14:14:24.087Z,32.60
2019-05-30T14:16:56.222Z,33.40
2019-05-30T14:19:28.068Z,33.53
2019-05-30T14:22:01.057Z,33.64
2019-05-30T14:24:35.555Z,35.34
2019-05-30T14:27:07.650Z,32.09
2019-05-30T14:29:40.609Z,31.33
2019-05-30T14:32:12.632Z,31.39
2019-05-30T14:34:44.546Z,31.64
2019-05-30T14:37:16.333Z,32.92
2019-05-30T14:39:48.584Z,31.05
2019-05-30T14:42:20.537Z,30.94
2019-05-30T14:44:52.514Z,32.35
2019-05-30T14:47:24.691Z,32.82
2019-05-30T14:49:56.686Z,33.72
2019-05-30T14:52:28.949Z,34.53
2019-05-30T14:55:02.026Z,33.52
2019-05-30T14:57:34.128Z,31.90
2019-05-30T15:00:13.596Z,31.27
2019-05-30T15:02:46.153Z,31.17
2019-05-30T15:05:18.554Z,31.57
2019-05-30T15:07:50.589Z,32.93
2019-05-30T15:10:22.513Z,32.98
2019-05-30T15:12:55.371Z,32.17
2019-05-30T15:15:27.346Z,33.17
2019-05-30T15:17:59.169Z,30.89
2019-05-30T15:20:31.215Z,33.90
2019-05-30T15:23:03.165Z,31.71
2019-05-30T15:25:35.091Z,33.32
2019-05-30T15:28:07.967Z,30.84
2019-05-30T15:30:40.024Z,32.38
2019-05-30T15:33:12.658Z,30.08
2019-05-30T15:35:45.684Z,32.53
2019-05-30T15:38:17.578Z,31.54
2019-05-30T15:40:49.499Z,34.33
2019-05-30T15:43:21.455Z,30.54
2019-05-30T15:45:53.436Z,31.16
2019-05-30T15:48:25.312Z,31.45
2019-05-30T15:50:57.301Z,29.58
2019-05-30T15:53:29.406Z,29.11
2019-05-30T15:56:01.729Z,29.95
2019-05-30T15:58:33.761Z,30.17
2019-05-30T16:01:09.810Z,29.59
2019-05-30T16:03:43.689Z,30.09
2019-05-30T16:06:16.549Z,30.38
2019-05-30T16:08:48.518Z,28.65
2019-05-30T16:11:21.261Z,29.69
2019-05-30T16:13:53.304Z,30.53
2019-05-30T16:16:38.914Z,28.11
2019-05-30T16:19:14.789Z,27.79
2019-05-30T16:21:33.615Z,28.12
2019-05-30T16:24:07.050Z,27.16
2019-05-30T16:26:39.373Z,27.35
2019-05-30T16:29:11.342Z,24.74
2019-05-30T16:31:43.185Z,25.96
2019-05-30T16:34:16.104Z,25.06
2019-05-30T16:36:48.773Z,24.40
2019-05-30T16:39:20.647Z,25.47
2019-05-30T16:41:52.801Z,25.85
2019-05-30T16:44:24.767Z,25.63
2019-05-30T16:46:56.752Z,24.21
2019-05-30T16:49:29.051Z,26.43
2019-05-30T16:52:00.978Z,25.09
2019-05-30T16:54:33.021Z,26.01
2019-05-30T16:57:05.025Z,23.41
2019-05-30T16:59:36.917Z,23.04
2019-05-30T17:02:09.389Z,22.68
2019-05-30T17:04:41.365Z,23.70
2019-05-30T17:07:13.452Z,23.97
2019-05-30T17:09:45.403Z,24.28
2019-05-30T17:12:17.504Z,24.64
2019-05-30T17:14:49.564Z,23.25
2019-05-30T17:17:24.195Z,23.37
2019-05-30T17:19:56.817Z,22.82
2019-05-30T17:22:30.930Z,22.53
2019-05-30T17:25:03.831Z,23.15
2019-05-30T17:27:46.710Z,20.65
2019-05-30T17:30:21.616Z,21.95
2019-05-30T17:32:55.143Z,22.91
2019-05-30T17:35:46.281Z,22.09
2019-05-30T17:38:26.533Z,22.18
2019-05-30T17:40:58.535Z,21.64
2019-05-30T17:43:30.455Z,22.15
2019-05-30T17:46:02.439Z,22.37
2019-05-30T17:48:34.573Z,22.11
2019-05-30T17:51:06.610Z,23.57
2019-05-30T17:53:38.738Z,23.68
2019-05-30T17:56:10.796Z,23.26
2019-05-30T17:58:42.992Z,23.95
2019-05-30T18:01:14.736Z,24.25
2019-05-30T18:03:46.717Z,24.90
2019-05-30T18:06:20.377Z,25.68
2019-05-30T18:08:52.466Z,25.78
2019-05-30T18:11:24.947Z,26.81
2019-05-30T18:13:57.052Z,27.62
2019-05-30T18:16:29.290Z,28.67
2019-05-30T18:19:01.296Z,29.35
2019-05-30T18:21:33.251Z,29.96
2019-05-30T18:24:05.370Z,30.66
2019-05-30T18:26:37.317Z,31.78
2019-05-30T18:29:09.381Z,32.09
2019-05-30T18:31:41.271Z,32.74
2019-05-30T18:34:13.049Z,33.50
2019-05-30T18:36:46.325Z,33.65
2019-05-30T18:39:18.687Z,34.68
2019-05-30T18:41:50.654Z,36.05
2019-05-30T18:44:22.803Z,38.11
2019-05-30T18:46:54.673Z,38.73
2019-05-30T18:49:27.140Z,39.41
2019-05-30T18:51:59.234Z,40.31
2019-05-30T18:54:31.737Z,40.96
2019-05-30T18:57:04.913Z,41.97
2019-05-30T18:59:37.394Z,42.26
2019-05-30T19:02:10.555Z,43.51
2019-05-30T19:04:42.539Z,43.94
2019-05-30T19:07:14.505Z,44.48
2019-05-30T19:09:46.479Z,45.00
2019-05-30T19:12:19.436Z,46.29
2019-05-30T19:14:51.344Z,46.51
2019-05-30T19:17:23.239Z,47.25
2019-05-30T19:19:55.240Z,47.48
2019-05-30T19:22:28.365Z,48.33
2019-05-30T19:25:00.683Z,49.35
2019-05-30T19:27:36.401Z,50.01
2019-05-30T19:30:11.151Z,50.44
2019-05-30T19:32:42.962Z,51.23
2019-05-30T19:35:15.926Z,51.55
2019-05-30T19:38:05.044Z,51.79
2019-05-30T19:40:39.427Z,52.26
2019-05-30T19:43:12.874Z,53.04
2019-05-30T19:45:45.301Z,53.54
2019-05-30T19:48:17.302Z,53.58
2019-05-30T19:50:49.220Z,54.60
2019-05-30T19:53:21.106Z,54.94
2019-05-30T19:55:53.068Z,55.57
2019-05-30T19:58:24.966Z,55.87
2019-05-30T20:00:58.766Z,56.29
2019-05-30T20:03:38.519Z,56.70
2019-05-30T20:06:04.257Z,56.59
2019-05-30T20:08:51.356Z,57.64
2019-05-30T20:11:09.893Z,57.97
2019-05-30T20:13:41.946Z,58.08
2019-05-30T20:16:13.986Z,58.98
2019-05-30T20:18:45.892Z,59.04
2019-05-30T20:21:18.588Z,59.52
2019-05-30T20:23:56.622Z,59.84
2019-05-30T20:26:24.167Z,60.07
2019-05-30T20:28:56.051Z,60.61
2019-05-30T20:31:28.149Z,61.35
2019-05-30T20:34:00.190Z,61.11
2019-05-30T20:36:32.177Z,61.59
2019-05-30T20:39:04.887Z,62.07
2019-05-30T20:41:36.962Z,62.51
2019-05-30T20:44:08.856Z,61.34
2019-05-30T20:46:41.172Z,49.97
2019-05-30T20:49:13.149Z,46.57
2019-05-30T20:51:45.118Z,48.71
2019-05-30T20:54:17.015Z,50.09
2019-05-30T20:56:51.062Z,52.21
2019-05-30T20:59:22.597Z,53.18
2019-05-30T21:01:54.662Z,53.99
2019-05-30T21:04:26.814Z,55.13
2019-05-30T21:06:59.313Z,55.68
2019-05-30T21:09:31.885Z,56.35
2019-05-30T21:12:05.347Z,57.43
2019-05-30T21:14:37.421Z,58.40
2019-05-30T21:17:10.220Z,58.88
2019-05-30T21:19:42.174Z,59.85
2019-05-30T21:22:14.168Z,60.42
2019-05-30T21:24:46.944Z,60.99
2019-05-30T21:27:19.021Z,61.57
2019-05-30T21:29:51.049Z,62.20
2019-05-30T21:32:23.023Z,63.01
2019-05-30T21:34:54.978Z,61.00
2019-05-30T21:37:26.952Z,49.66
2019-05-30T21:39:58.981Z,47.14
2019-05-30T21:42:31.055Z,48.39
2019-05-30T21:45:02.866Z,50.67
2019-05-30T21:47:34.833Z,52.38
2019-05-30T21:50:07.903Z,53.35
2019-05-30T21:52:41.326Z,54.80
2019-05-30T21:55:13.698Z,55.70
2019-05-30T21:57:46.025Z,56.53
2019-05-30T22:01:05.805Z,57.72
2019-05-30T22:03:37.794Z,58.69
2019-05-30T22:06:09.591Z,59.58
2019-05-30T22:08:43.003Z,60.56
2019-05-30T22:11:15.143Z,61.01
2019-05-30T22:13:47.690Z,62.04
2019-05-30T22:16:19.622Z,62.48
2019-05-30T22:18:52.206Z,61.31
2019-05-30T22:21:24.405Z,50.51
2019-05-30T22:23:56.396Z,47.24
2019-05-30T22:26:28.495Z,49.53
2019-05-30T22:29:00.472Z,51.71
2019-05-30T22:31:32.490Z,52.86
2019-05-30T22:34:04.455Z,54.15
2019-05-30T22:36:36.335Z,55.64
2019-05-30T22:39:09.031Z,57.31
2019-05-30T22:41:41.042Z,57.92
2019-05-30T22:44:13.010Z,58.42
2019-05-30T22:46:46.115Z,59.54
2019-05-30T22:49:18.103Z,60.32
2019-05-30T22:51:51.109Z,61.14
2019-05-30T22:54:23.149Z,61.97
2019-05-30T22:56:55.755Z,62.59
2019-05-30T22:59:27.775Z,61.36
2019-05-30T23:01:59.735Z,50.30
2019-05-30T23:04:31.837Z,47.73
2019-05-30T23:07:04.035Z,49.99
2019-05-30T23:09:36.142Z,51.87
2019-05-30T23:12:08.047Z,53.46
2019-05-30T23:14:40.083Z,54.81
2019-05-30T23:17:11.978Z,56.13
2019-05-30T23:19:44.048Z,56.72
2019-05-30T23:22:16.042Z,57.73
2019-05-30T23:24:49.209Z,58.77
2019-05-30T23:27:21.106Z,59.56
2019-05-30T23:29:53.921Z,60.93
2019-05-30T23:32:25.764Z,61.20
2019-05-30T23:34:58.666Z,62.38
2019-05-30T23:37:30.522Z,60.84
2019-05-30T23:40:02.420Z,52.99
2019-05-30T23:42:34.364Z,54.33
2019-05-30T23:45:10.227Z,55.90
2019-05-30T23:47:42.039Z,57.50
2019-05-30T23:50:13.937Z,58.41
2019-05-30T23:52:45.821Z,59.41
2019-05-30T23:55:17.719Z,60.37
2019-05-30T23:57:50.357Z,61.22
